Startpagina
METAR-TAF:

METAR-TAF

Vliegvelden :

Beiroet, Libanon

breedte: 33-49N, lengte: 035-29E, hoogte: 29 m

Actueel weer

Dit bericht is 12 minuten geleden gemaakt, om 12:00 UTC
Wind 7 kt uit het westen, variërend tussen het westzuidwesten en het noordwesten
Temperatuur 27°C
Vochtigheid 62%
Druk 1014 hPa
Zicht: 8000 m
Weinig wolken op 2600 ft

METAR: OLBA 221200Z 28007KT 240V310 8000 FEW026 27/19 Q1014

Tijdstip: 15:12 (12:12 UTC)

Verwachting

Dit bericht is 2 uur en het 12 minuten geleden gemaakt, om 10:00 UTC
Verwachting geldig van 22 om 12 UTC tot 23 om 18 UTC
Wind 14 kt uit het westen
Zicht: 8000 m
Weinig wolken op 2600 ft
Wijzigt naar
van 22 om 20 UTC tot 22 om 22 UTC
Wind 5 kt uit het zuidzuidoosten
Zicht 10 km of meer
geen wolken onder 1500 m en geen cumulonimbus
Wijzigt naar
van 13 om 06 UTC tot 13 om 08 UTC
Wind 12 kt uit het westzuidwesten
Zicht: 8000 m
Weinig wolken op 2600 ft

TAF: OLBA 221000Z 2212/2318 26014KT 8000 FEW026 BECMG 2220/2222 15005KT CAVOK BECMG 1306/1308 24012KT 8000 FEW026

Waarnemingen en weersverwachtingen van meer dan 4000 vliegvelden (METAR en TAF).

De beschikbare stations zijn de gele en rode punten op de kaart.

Ga met uw muis naar het station om de naam te zien.

Klik dan om waarnemingen en weersverwachtingen te zien.

kaart wijzigen: klik op de groene knoppen met een zwart kruis om in te zoomen, op de groene knop met een streepje om uit te zoomen of op de groene pijlen voor aangrenzende kaarten.


METAR-TAF: